createdAt,value
2022-09-21T00:01:28.539Z,0.73
2022-09-21T00:04:01.359Z,0.80
2022-09-21T00:06:33.160Z,1.00
2022-09-21T00:09:00.890Z,0.75
2022-09-21T00:14:04.624Z,0.70
2022-09-21T00:16:32.154Z,0.70
2022-09-21T00:19:00.461Z,0.63
2022-09-21T00:21:28.175Z,0.70
2022-09-21T00:26:26.339Z,0.30
2022-09-21T00:28:59.567Z,0.65
2022-09-21T00:31:28.642Z,0.60
2022-09-21T00:33:55.599Z,0.77
2022-09-21T00:36:25.733Z,0.93
2022-09-21T00:38:59.099Z,0.73
2022-09-21T00:41:27.847Z,0.65
2022-09-21T00:44:16.460Z,0.50
2022-09-21T00:46:46.630Z,0.57
2022-09-21T00:49:14.524Z,1.15
2022-09-21T00:51:42.607Z,0.63
2022-09-21T00:54:16.557Z,0.77
2022-09-21T00:56:45.234Z,0.90
2022-09-21T00:59:19.884Z,0.40
2022-09-21T01:01:48.564Z,0.68
2022-09-21T01:04:18.871Z,0.90
2022-09-21T01:06:47.810Z,0.65
2022-09-21T01:09:17.010Z,0.68
2022-09-21T01:12:36.544Z,0.73
2022-09-21T01:15:34.851Z,0.65
2022-09-21T01:18:35.218Z,0.70
2022-09-21T01:21:20.663Z,0.60
2022-09-21T01:24:10.730Z,0.63
2022-09-21T01:27:15.287Z,0.50
2022-09-21T01:30:02.468Z,0.57
2022-09-21T01:32:40.739Z,0.60
2022-09-21T01:35:28.132Z,0.98
2022-09-21T01:37:57.050Z,0.65
2022-09-21T01:40:36.644Z,0.68
2022-09-21T01:43:06.713Z,0.70
2022-09-21T01:45:40.906Z,0.90
2022-09-21T01:48:09.187Z,0.60
2022-09-21T01:50:43.703Z,0.80
2022-09-21T01:53:28.477Z,0.90
2022-09-21T01:56:07.819Z,0.90
2022-09-21T01:58:45.086Z,1.00
2022-09-21T02:01:20.244Z,0.90
2022-09-21T02:04:12.876Z,0.82
2022-09-21T02:06:43.819Z,0.85
2022-09-21T02:09:11.694Z,0.63
2022-09-21T02:11:42.437Z,0.93
2022-09-21T02:14:18.151Z,0.70
2022-09-21T02:17:07.691Z,0.60
2022-09-21T02:19:49.212Z,0.77
2022-09-21T02:22:29.730Z,0.85
2022-09-21T02:25:11.108Z,0.95
2022-09-21T02:27:50.093Z,0.63
2022-09-21T02:30:25.282Z,0.90
2022-09-21T02:33:25.744Z,1.13
2022-09-21T02:36:10.169Z,0.70
2022-09-21T02:39:00.761Z,0.70
2022-09-21T02:41:33.834Z,0.90
2022-09-21T02:44:33.614Z,0.90
2022-09-21T02:49:44.283Z,0.63
2022-09-21T02:52:17.006Z,0.50
2022-09-21T02:54:50.588Z,0.90
2022-09-21T02:57:21.542Z,0.70
2022-09-21T02:59:49.810Z,0.82
2022-09-21T03:02:16.911Z,0.70
2022-09-21T03:04:48.002Z,0.93
2022-09-21T03:07:18.336Z,0.98
2022-09-21T03:09:45.291Z,0.70
2022-09-21T03:12:12.110Z,1.13
2022-09-21T03:14:39.058Z,0.80
2022-09-21T03:17:05.908Z,0.73
2022-09-21T03:19:32.690Z,0.70
2022-09-21T03:22:00.072Z,1.25
2022-09-21T03:24:45.463Z,1.27
2022-09-21T03:27:14.638Z,1.02
2022-09-21T03:29:41.482Z,0.73
2022-09-21T03:32:08.466Z,0.70
2022-09-21T03:34:35.916Z,0.82
2022-09-21T03:37:05.398Z,0.80
2022-09-21T03:39:32.188Z,1.27
2022-09-21T03:41:59.283Z,1.00
2022-09-21T03:44:26.854Z,1.00
2022-09-21T03:46:54.257Z,0.68
2022-09-21T03:49:21.270Z,0.90
2022-09-21T03:51:48.080Z,0.73
2022-09-21T03:54:14.876Z,0.90
2022-09-21T03:56:41.790Z,1.17
2022-09-21T03:59:13.188Z,0.88
2022-09-21T04:01:41.065Z,0.85
2022-09-21T04:04:08.060Z,0.80
2022-09-21T04:06:35.161Z,1.00
2022-09-21T04:09:02.602Z,0.82
2022-09-21T04:11:30.084Z,1.00
2022-09-21T04:13:57.317Z,1.00
2022-09-21T04:16:25.472Z,0.90
2022-09-21T04:18:52.417Z,0.88
2022-09-21T04:21:21.033Z,0.87
2022-09-21T04:23:49.638Z,0.98
2022-09-21T04:26:26.939Z,1.08
2022-09-21T04:28:55.554Z,1.30
2022-09-21T04:31:24.189Z,0.80
2022-09-21T04:33:53.816Z,1.10
2022-09-21T04:36:23.330Z,1.05
2022-09-21T04:38:50.790Z,0.90
2022-09-21T04:41:18.594Z,1.50
2022-09-21T04:46:17.221Z,1.47
2022-09-21T04:48:44.976Z,1.40
2022-09-21T04:53:41.758Z,1.23
2022-09-21T04:56:10.744Z,1.73
2022-09-21T04:58:37.599Z,1.05
2022-09-21T05:01:06.437Z,1.23
2022-09-21T05:03:34.234Z,0.80
2022-09-21T05:08:47.001Z,1.00
2022-09-21T05:11:21.331Z,1.15
2022-09-21T05:13:48.298Z,1.20
2022-09-21T05:16:17.434Z,1.13
2022-09-21T05:18:45.446Z,1.20
2022-09-21T05:21:14.139Z,1.20
2022-09-21T05:23:41.007Z,1.08
2022-09-21T05:26:08.004Z,1.40
2022-09-21T05:28:39.218Z,1.10
2022-09-21T05:31:27.810Z,1.10
2022-09-21T05:34:06.246Z,1.10
2022-09-21T05:39:00.370Z,1.15
2022-09-21T05:41:27.553Z,1.10
2022-09-21T05:43:55.080Z,1.60
2022-09-21T05:46:52.712Z,1.30
2022-09-21T05:49:29.604Z,1.10
2022-09-21T05:52:35.307Z,1.60
2022-09-21T05:55:22.998Z,1.80
2022-09-21T05:58:14.815Z,1.48
2022-09-21T06:01:15.917Z,1.65
2022-09-21T06:03:43.499Z,1.40
2022-09-21T06:06:10.582Z,1.40
2022-09-21T06:08:37.442Z,1.98
2022-09-21T06:11:04.383Z,1.60
2022-09-21T06:13:31.306Z,1.63
2022-09-21T06:16:02.063Z,1.45
2022-09-21T06:18:29.033Z,1.27
2022-09-21T06:20:56.118Z,1.55
2022-09-21T06:23:22.923Z,1.67
2022-09-21T06:25:58.259Z,1.90
2022-09-21T06:28:25.943Z,2.60
2022-09-21T06:30:54.961Z,2.50
2022-09-21T06:33:23.568Z,2.30
2022-09-21T06:35:59.328Z,2.03
2022-09-21T06:38:29.035Z,2.35
2022-09-21T06:41:00.750Z,2.25
2022-09-21T06:43:27.521Z,1.80
2022-09-21T06:45:59.982Z,1.90
2022-09-21T06:48:29.197Z,1.50
2022-09-21T06:51:00.413Z,1.50
2022-09-21T06:53:29.961Z,1.70
2022-09-21T06:56:06.629Z,1.50
2022-09-21T06:58:35.143Z,1.40
2022-09-21T07:01:10.991Z,1.40
2022-09-21T07:03:39.945Z,1.52
2022-09-21T07:06:08.441Z,1.52
2022-09-21T07:11:27.447Z,1.75
2022-09-21T07:16:21.511Z,1.40
2022-09-21T07:18:48.962Z,1.50
2022-09-21T07:21:16.732Z,1.50
2022-09-21T07:23:43.606Z,1.67
2022-09-21T07:26:13.471Z,1.90
2022-09-21T07:28:41.581Z,1.48
2022-09-21T07:31:16.531Z,1.90
2022-09-21T07:33:47.082Z,1.60
2022-09-21T07:36:14.183Z,1.52
2022-09-21T07:38:43.717Z,1.60
2022-09-21T07:41:13.387Z,1.95
2022-09-21T07:43:41.595Z,1.50
2022-09-21T07:46:14.486Z,1.50
2022-09-21T07:48:42.380Z,1.40
2022-09-21T07:51:13.849Z,1.50
2022-09-21T07:53:44.365Z,1.83
2022-09-21T07:56:17.539Z,2.10
2022-09-21T07:59:03.241Z,1.48
2022-09-21T08:01:31.209Z,1.90
2022-09-21T08:03:59.797Z,2.08
2022-09-21T08:06:33.452Z,1.88
2022-09-21T08:09:01.870Z,2.15
2022-09-21T08:11:30.850Z,2.10
2022-09-21T08:14:02.916Z,1.73
2022-09-21T08:16:31.385Z,1.63
2022-09-21T08:18:58.239Z,1.67
2022-09-21T08:21:25.102Z,1.43
2022-09-21T08:23:52.314Z,1.53
2022-09-21T08:26:20.724Z,1.80
2022-09-21T08:28:51.415Z,1.35
2022-09-21T08:31:21.284Z,1.63
2022-09-21T08:33:49.844Z,1.75
2022-09-21T08:36:18.243Z,1.50
2022-09-21T08:38:45.390Z,1.70
2022-09-21T08:41:38.530Z,1.65
2022-09-21T08:44:21.284Z,1.45
2022-09-21T08:47:14.890Z,1.50
2022-09-21T08:49:55.201Z,1.52
2022-09-21T08:52:24.939Z,1.50
2022-09-21T08:54:51.672Z,1.40
2022-09-21T08:57:20.349Z,1.50
2022-09-21T08:59:49.908Z,1.27
2022-09-21T09:02:46.008Z,1.63
2022-09-21T09:05:37.206Z,1.83
2022-09-21T09:08:40.339Z,1.88
2022-09-21T09:11:44.198Z,1.90
2022-09-21T09:14:44.151Z,2.08
2022-09-21T09:17:50.711Z,1.90
2022-09-21T09:20:34.498Z,1.63
2022-09-21T09:23:31.874Z,2.08
2022-09-21T09:26:11.140Z,1.30
2022-09-21T09:29:24.907Z,1.90
2022-09-21T09:31:54.779Z,1.75
2022-09-21T09:34:38.998Z,1.33
2022-09-21T09:37:17.741Z,1.30
2022-09-21T09:39:57.791Z,1.75
2022-09-21T09:42:29.773Z,1.60
2022-09-21T09:45:23.616Z,1.52
2022-09-21T09:48:07.009Z,1.42
2022-09-21T09:50:41.657Z,1.23
2022-09-21T09:53:26.792Z,1.25
2022-09-21T09:55:57.610Z,1.00
2022-09-21T09:58:36.688Z,1.02
2022-09-21T10:01:04.288Z,1.35
2022-09-21T10:03:31.167Z,1.48
2022-09-21T10:05:58.093Z,1.20
2022-09-21T10:08:36.834Z,1.10
2022-09-21T10:11:05.574Z,1.13
2022-09-21T10:13:34.814Z,0.95
2022-09-21T10:16:23.646Z,0.90
2022-09-21T10:21:27.419Z,0.90
2022-09-21T10:24:12.788Z,0.90
2022-09-21T10:26:52.931Z,1.40
2022-09-21T10:29:49.305Z,1.02
2022-09-21T10:32:16.339Z,1.02
2022-09-21T10:35:05.189Z,0.73
2022-09-21T10:40:19.528Z,0.60
2022-09-21T10:42:54.806Z,0.90
2022-09-21T10:45:26.557Z,0.82
2022-09-21T10:48:17.903Z,0.98
2022-09-21T10:50:50.977Z,1.08
2022-09-21T10:53:30.969Z,0.95
2022-09-21T10:56:22.379Z,0.70
2022-09-21T10:59:13.749Z,1.13
2022-09-21T11:01:48.966Z,0.80
2022-09-21T11:05:26.359Z,0.82
2022-09-21T11:08:14.466Z,0.73
2022-09-21T11:11:11.958Z,0.90
2022-09-21T11:14:15.114Z,0.70
2022-09-21T11:17:35.220Z,0.50
2022-09-21T11:20:19.329Z,0.57
2022-09-21T11:23:19.870Z,0.63
2022-09-21T11:26:15.074Z,0.70
2022-09-21T11:32:20.201Z,0.60
2022-09-21T11:35:26.874Z,0.57
2022-09-21T11:38:04.249Z,0.80
2022-09-21T11:40:42.021Z,0.77
2022-09-21T11:43:54.457Z,0.82
2022-09-21T11:46:45.197Z,0.65
2022-09-21T11:50:07.736Z,0.63
2022-09-21T11:53:29.922Z,0.65
2022-09-21T11:56:53.141Z,0.60
2022-09-21T11:59:49.401Z,0.63
2022-09-21T12:02:44.276Z,0.80
2022-09-21T12:05:44.293Z,0.73
2022-09-21T12:08:45.586Z,0.50
2022-09-21T12:11:27.546Z,0.63
2022-09-21T12:14:17.402Z,0.32
2022-09-21T12:17:14.793Z,0.60
2022-09-21T12:20:02.309Z,0.30
2022-09-21T12:22:41.830Z,0.40
2022-09-21T12:25:15.134Z,0.30
2022-09-21T12:28:31.292Z,0.40
2022-09-21T12:31:17.150Z,0.50
2022-09-21T12:33:53.581Z,0.30
2022-09-21T12:36:39.563Z,0.40
2022-09-21T12:40:15.611Z,0.25
2022-09-21T12:42:50.827Z,0.20
2022-09-21T12:45:32.921Z,0.20
2022-09-21T12:48:24.634Z,0.30
2022-09-21T12:51:21.411Z,0.22
2022-09-21T12:53:53.446Z,0.20
2022-09-21T12:56:43.450Z,0.25
2022-09-21T12:59:36.593Z,0.10
2022-09-21T13:02:37.299Z,0.30
2022-09-21T13:05:22.539Z,0.20
2022-09-21T13:08:05.110Z,0.43
2022-09-21T13:10:45.315Z,0.17
2022-09-21T13:13:31.412Z,0.30
2022-09-21T13:15:59.883Z,0.20
2022-09-21T13:18:36.642Z,0.20
2022-09-21T13:21:21.969Z,0.20
2022-09-21T13:24:00.754Z,0.40
2022-09-21T13:26:41.504Z,0.25
2022-09-21T13:29:17.184Z,0.20
2022-09-21T13:32:04.389Z,0.20
2022-09-21T13:34:39.082Z,0.32
2022-09-21T13:37:18.052Z,0.30
2022-09-21T13:39:55.699Z,0.30
2022-09-21T13:42:34.810Z,0.43
2022-09-21T13:45:05.082Z,0.20
2022-09-21T13:47:35.858Z,0.25
2022-09-21T13:50:26.889Z,0.20
2022-09-21T13:53:02.015Z,0.20
2022-09-21T13:55:39.927Z,0.25
2022-09-21T13:58:26.566Z,0.20
2022-09-21T14:01:09.922Z,0.30
2022-09-21T14:04:01.887Z,0.40
2022-09-21T14:06:43.707Z,0.35
2022-09-21T14:09:37.656Z,0.40
2022-09-21T14:12:12.538Z,0.28
2022-09-21T14:14:41.438Z,0.15
2022-09-21T14:17:37.976Z,0.30
2022-09-21T14:20:35.806Z,0.17
2022-09-21T14:23:14.739Z,0.30
2022-09-21T14:26:33.932Z,0.28
2022-09-21T14:29:24.520Z,0.20
2022-09-21T14:31:59.513Z,0.30
2022-09-21T14:34:36.711Z,0.28
2022-09-21T14:37:36.416Z,0.30
2022-09-21T14:40:31.298Z,0.25
2022-09-21T14:43:03.520Z,0.20
2022-09-21T14:46:11.922Z,0.35
2022-09-21T14:49:14.842Z,0.20
2022-09-21T14:52:04.257Z,0.20
2022-09-21T14:55:16.703Z,0.20
2022-09-21T14:57:59.529Z,0.40
2022-09-21T15:00:46.249Z,0.20
2022-09-21T15:03:31.393Z,0.20
2022-09-21T15:06:38.032Z,0.30
2022-09-21T15:09:54.019Z,0.38
2022-09-21T15:12:38.191Z,0.20
2022-09-21T15:15:41.278Z,0.35
2022-09-21T15:18:21.745Z,0.30
2022-09-21T15:21:01.664Z,0.30
2022-09-21T15:23:33.979Z,0.30
2022-09-21T15:26:09.930Z,0.20
2022-09-21T15:29:08.260Z,0.30
2022-09-21T15:31:38.659Z,0.52
2022-09-21T15:34:08.402Z,0.35
2022-09-21T15:36:44.856Z,0.10
2022-09-21T15:39:27.623Z,0.40
2022-09-21T15:42:22.779Z,0.30
2022-09-21T15:45:06.467Z,0.30
2022-09-21T15:47:34.081Z,0.40
2022-09-21T15:50:01.125Z,0.20
2022-09-21T15:52:43.116Z,0.32
2022-09-21T15:55:21.840Z,0.30
2022-09-21T15:57:58.538Z,0.30
2022-09-21T16:00:31.597Z,0.30
2022-09-21T16:03:16.335Z,0.40
2022-09-21T16:05:56.179Z,0.47
2022-09-21T16:08:37.541Z,0.40
2022-09-21T16:11:27.258Z,0.50
2022-09-21T16:14:33.842Z,0.20
2022-09-21T16:17:09.391Z,0.50
2022-09-21T16:19:51.107Z,0.45
2022-09-21T16:22:29.682Z,0.60
2022-09-21T16:25:01.586Z,0.82
2022-09-21T16:27:32.739Z,0.80
2022-09-21T16:30:01.052Z,0.80
2022-09-21T16:32:33.075Z,0.65
2022-09-21T16:35:27.882Z,0.63
2022-09-21T16:37:58.914Z,0.52
2022-09-21T16:40:27.507Z,0.40
2022-09-21T16:42:55.892Z,0.55
2022-09-21T16:45:31.744Z,0.60
2022-09-21T16:47:59.747Z,0.45
2022-09-21T16:50:27.102Z,0.90
2022-09-21T16:52:53.934Z,0.60
2022-09-21T16:55:24.423Z,0.52
2022-09-21T16:57:55.187Z,0.52
2022-09-21T17:00:22.272Z,0.30
2022-09-21T17:02:49.637Z,0.50
2022-09-21T17:05:19.272Z,0.43
2022-09-21T17:07:54.826Z,1.30
2022-09-21T17:10:29.250Z,0.75
2022-09-21T17:12:56.785Z,0.30
2022-09-21T17:15:24.779Z,0.50
2022-09-21T17:17:51.732Z,0.30
2022-09-21T17:20:33.940Z,0.40
2022-09-21T17:23:03.005Z,0.32
2022-09-21T17:25:32.782Z,0.43
2022-09-21T17:28:01.638Z,0.30
2022-09-21T17:30:29.190Z,0.22
2022-09-21T17:32:58.244Z,0.30
2022-09-21T17:35:39.401Z,0.30
2022-09-21T17:38:14.338Z,0.20
2022-09-21T17:40:43.022Z,0.50
2022-09-21T17:43:50.042Z,0.50
2022-09-21T17:46:23.278Z,0.20
2022-09-21T17:48:50.716Z,0.40
2022-09-21T17:51:37.998Z,0.40
2022-09-21T17:54:05.486Z,0.50
2022-09-21T17:56:57.769Z,0.52
2022-09-21T17:59:32.225Z,0.30
2022-09-21T18:02:01.089Z,0.40
2022-09-21T18:04:32.795Z,0.20
2022-09-21T18:07:00.154Z,0.30
2022-09-21T18:09:27.372Z,0.20
2022-09-21T18:12:11.103Z,0.30
2022-09-21T18:15:27.242Z,0.30
2022-09-21T18:18:03.214Z,0.40
2022-09-21T18:21:01.992Z,0.47
2022-09-21T18:24:11.899Z,0.60
2022-09-21T18:26:40.284Z,0.65
2022-09-21T18:29:38.858Z,0.60
2022-09-21T18:32:31.336Z,0.60
2022-09-21T18:35:14.924Z,0.40
2022-09-21T18:38:13.018Z,0.40
2022-09-21T18:40:51.886Z,0.30
2022-09-21T18:43:49.508Z,0.47
2022-09-21T18:46:39.154Z,0.63
2022-09-21T18:49:34.754Z,0.40
2022-09-21T18:52:32.736Z,2.17
2022-09-21T18:54:59.730Z,2.10
2022-09-21T18:57:32.192Z,1.55
2022-09-21T19:00:00.217Z,2.45
2022-09-21T19:02:28.478Z,2.50
2022-09-21T19:04:57.965Z,2.15
2022-09-21T19:07:40.142Z,4.35
2022-09-21T19:10:29.200Z,1.88
2022-09-21T19:16:46.949Z,1.10
2022-09-21T19:19:55.158Z,0.63
2022-09-21T19:22:45.945Z,0.60
2022-09-21T19:25:28.146Z,0.77
2022-09-21T19:28:00.327Z,0.90
2022-09-21T19:30:27.831Z,0.82
2022-09-21T19:32:58.258Z,0.80
2022-09-21T19:35:30.809Z,0.70
2022-09-21T19:38:03.018Z,0.80
2022-09-21T19:40:34.214Z,0.77
2022-09-21T19:43:20.558Z,0.70
2022-09-21T19:46:04.987Z,0.70
2022-09-21T19:48:45.245Z,0.50
2022-09-21T19:51:35.586Z,0.70
2022-09-21T19:54:27.650Z,0.68
2022-09-21T19:57:13.527Z,0.70
2022-09-21T19:59:43.278Z,0.60
2022-09-21T20:02:23.560Z,0.68
2022-09-21T20:05:08.041Z,0.52
2022-09-21T20:07:47.111Z,0.57
2022-09-21T20:10:22.889Z,0.50
2022-09-21T20:12:52.437Z,0.40
2022-09-21T20:15:30.056Z,0.60
2022-09-21T20:18:20.473Z,0.63
2022-09-21T20:20:47.798Z,0.60
2022-09-21T20:23:14.901Z,1.00
2022-09-21T20:26:00.674Z,0.82
2022-09-21T20:28:27.856Z,1.23
2022-09-21T20:30:54.989Z,0.82
2022-09-21T20:33:24.082Z,0.90
2022-09-21T20:35:55.794Z,0.82
2022-09-21T20:38:23.393Z,0.57
2022-09-21T20:40:51.383Z,0.50
2022-09-21T20:43:19.772Z,0.73
2022-09-21T20:45:50.204Z,0.77
2022-09-21T20:48:17.262Z,0.50
2022-09-21T20:50:47.976Z,0.65
2022-09-21T20:53:15.021Z,0.40
2022-09-21T20:55:43.730Z,0.50
2022-09-21T20:58:12.962Z,0.40
2022-09-21T21:00:39.941Z,0.40
2022-09-21T21:03:06.904Z,0.40
2022-09-21T21:05:33.685Z,0.60
2022-09-21T21:08:00.485Z,0.50
2022-09-21T21:10:27.289Z,0.40
2022-09-21T21:12:54.126Z,0.40
2022-09-21T21:15:20.927Z,1.10
2022-09-21T21:17:48.898Z,1.53
2022-09-21T21:20:16.730Z,2.55
2022-09-21T21:22:48.052Z,4.93
2022-09-21T21:25:15.591Z,3.15
2022-09-21T21:27:42.557Z,1.20
2022-09-21T21:30:11.274Z,0.90
2022-09-21T21:32:38.083Z,0.70
2022-09-21T21:35:06.084Z,0.43
2022-09-21T21:37:32.868Z,0.43
2022-09-21T21:39:59.678Z,0.50
2022-09-21T21:42:28.774Z,0.53
2022-09-21T21:44:56.306Z,0.40
2022-09-21T21:47:40.260Z,0.47
2022-09-21T21:50:09.233Z,0.40
2022-09-21T21:52:36.529Z,0.60
2022-09-21T21:55:04.561Z,0.60
2022-09-21T21:57:31.380Z,0.47
2022-09-21T21:59:58.198Z,0.60
2022-09-21T22:02:24.958Z,0.50
2022-09-21T22:04:52.607Z,0.37
2022-09-21T22:07:19.401Z,0.50
2022-09-21T22:09:46.199Z,0.60
2022-09-21T22:12:12.983Z,0.50
2022-09-21T22:14:39.969Z,0.60
2022-09-21T22:17:06.721Z,0.50
2022-09-21T22:19:33.505Z,0.70
2022-09-21T22:22:00.448Z,0.80
2022-09-21T22:24:27.209Z,0.53
2022-09-21T22:26:54.034Z,0.75
2022-09-21T22:29:20.826Z,0.60
2022-09-21T22:31:49.930Z,0.40
2022-09-21T22:34:17.146Z,0.50
2022-09-21T22:36:44.225Z,0.57
2022-09-21T22:39:12.121Z,0.70
2022-09-21T22:41:42.234Z,0.63
2022-09-21T22:44:10.598Z,0.57
2022-09-21T22:46:38.625Z,0.75
2022-09-21T22:49:06.461Z,0.50
2022-09-21T22:51:34.361Z,0.82
2022-09-21T22:54:01.708Z,0.70
2022-09-21T22:56:31.664Z,0.65
2022-09-21T22:59:01.795Z,0.80
2022-09-21T23:01:36.225Z,0.70
2022-09-21T23:04:08.063Z,0.63
2022-09-21T23:06:38.011Z,0.60
2022-09-21T23:09:08.226Z,0.50
2022-09-21T23:11:46.403Z,0.60
2022-09-21T23:14:17.270Z,0.50
2022-09-21T23:16:44.661Z,0.45
2022-09-21T23:19:15.669Z,0.60
2022-09-21T23:21:46.615Z,0.50
2022-09-21T23:24:13.748Z,0.50
2022-09-21T23:26:41.568Z,0.60
2022-09-21T23:31:44.706Z,0.60
2022-09-21T23:34:12.828Z,0.52
2022-09-21T23:36:41.606Z,0.60
2022-09-21T23:39:12.518Z,0.43
2022-09-21T23:41:39.962Z,0.70
2022-09-21T23:44:06.992Z,0.52
2022-09-21T23:46:37.818Z,0.70
2022-09-21T23:49:04.946Z,0.30
2022-09-21T23:51:31.848Z,0.60
2022-09-21T23:54:00.260Z,0.80
2022-09-21T23:56:28.844Z,0.40
2022-09-21T23:58:56.093Z,0.50
